Huvudsida
METAR-TAF:

METAR-TAF

Flygplatser :

Sir Seewoosagur Ramgoolams internationella flygplats

Mauritius, Mauritius

latitud: 20-26S, longitud: 057-40E, höjd: 55 m

Aktuellt väderrapport

Denna rapport gjordes för 13 minuter sedan, klockan 08:00 UTC
Vind 12 kt från ost
Temperatur 28°C
Fuktighet 66%
Tryck 1019 hPa
Sikt 10 km eller mer
Spridda moln på en höjd av 1700 ft

METAR: FIMP 270800Z 08012KT 9999 SCT017 28/21 Q1019

Tid: 12:13 (08:13 UTC)

Väderprognos

Denna rapport gjordes för 3 timmar och 3 minuter sedan, klockan 05:10 UTC
Prognos gäller från 27 kl. 06 UTC till 28 kl. 12 UTC
Vind 10 kt från ost
Sikt 10 km eller mer
Spridda moln på en höjd av 1800 ft

TAF: FIMP 270510Z 2706/2812 08010KT 9999 SCT018

Aktuella väderrapporter och prognoser från 4000 flygplatser (METAR- och TAF-rapporter).

De tillgängliga stationerna syns som gula och röda prickar på kartan.

För musen över prickarna för att se namnen på stationerna.

Klicka sedan för att få väderrapporter och prognoser.

För att ändra kartan: Klicka på de gröna knapparna med ett svart kors på för att zooma in; den gröna knappen med ett streck på för att zooma ut; eller på de gröna pilarna för angränsande kartor.


METAR-TAF: